SWA1214 KDEN-KSFO
Flight info
| Callsign | SWA1214 |
|---|---|
| Flight time | N/A |
| Altitude | 36000 |
| Route | COORZ7 VOAXA Q136 OAL INYOE DYAMD5 |
| Aircraft | B737/M-SDE2E3GIJ4RWZ/LB1D1 |
Departure
| Time | N/A |
|---|---|
| Airport | Denver International Airport (KDEN) |
Arrival
| Time | 2026-04-30 18:24 |
|---|---|
| Airport | San Francisco International Airport (KSFO) |
| Time | Latitude | Longitude | Altitude | Speed | Heading |
|---|---|---|---|---|---|
| 2026-04-30 17:39 | 38.22768 | -116.79926 | 36068 ft | 428 kts | 257° |
| 2026-04-30 17:42 | 38.14401 | -117.16323 | 36151 ft | 429 kts | 257° |
| 2026-04-30 17:43 | 38.10189 | -117.34496 | 36104 ft | 429 kts | 257° |
| 2026-04-30 17:44 | 38.05143 | -117.56287 | 36027 ft | 430 kts | 257° |
| 2026-04-30 17:47 | 37.98977 | -117.89271 | 36027 ft | 425 kts | 266° |
| 2026-04-30 17:48 | 37.96280 | -118.15322 | 36019 ft | 426 kts | 265° |
| 2026-04-30 17:50 | 37.93208 | -118.43826 | 36007 ft | 427 kts | 265° |
| 2026-04-30 17:52 | 37.90752 | -118.66148 | 36060 ft | 426 kts | 265° |
| 2026-04-30 17:54 | 37.86977 | -118.99520 | 36107 ft | 426 kts | 265° |
| 2026-04-30 17:56 | 37.83534 | -119.29154 | 36088 ft | 427 kts | 264° |
| 2026-04-30 17:58 | 37.80890 | -119.51466 | 36070 ft | 427 kts | 264° |
| 2026-04-30 18:00 | 37.77309 | -119.81134 | 36037 ft | 426 kts | 264° |
| 2026-04-30 18:01 | 37.75037 | -119.99625 | 36011 ft | 425 kts | 264° |
| 2026-04-30 18:02 | 37.72276 | -120.21771 | 34571 ft | 429 kts | 264° |
| 2026-04-30 18:03 | 37.70851 | -120.33082 | 31896 ft | 436 kts | 264° |
| 2026-04-30 18:04 | 37.69448 | -120.44280 | 30078 ft | 424 kts | 264° |
| 2026-04-30 18:05 | 37.67789 | -120.58662 | 27617 ft | 405 kts | 265° |
| 2026-04-30 18:06 | 37.66160 | -120.72526 | 25261 ft | 393 kts | 264° |
| 2026-04-30 18:07 | 37.64567 | -120.85807 | 23241 ft | 380 kts | 264° |
| 2026-04-30 18:08 | 37.63379 | -120.95627 | 21475 ft | 373 kts | 264° |
| 2026-04-30 18:09 | 37.61688 | -121.08375 | 19290 ft | 365 kts | 264° |
| 2026-04-30 18:10 | 37.60001 | -121.20928 | 16975 ft | 360 kts | 263° |
| 2026-04-30 18:11 | 37.58455 | -121.33199 | 14813 ft | 350 kts | 264° |
| 2026-04-30 18:11 | 37.57428 | -121.42295 | 13024 ft | 348 kts | 263° |
| 2026-04-30 18:12 | 37.56396 | -121.51213 | 11366 ft | 340 kts | 263° |
| 2026-04-30 18:13 | 37.55716 | -121.57061 | 10525 ft | 328 kts | 262° |
| 2026-04-30 18:13 | 37.54769 | -121.64190 | 10036 ft | 299 kts | 255° |
| 2026-04-30 18:14 | 37.53353 | -121.69870 | 9333 ft | 287 kts | 252° |
| 2026-04-30 18:15 | 37.51611 | -121.76998 | 8299 ft | 279 kts | 253° |
| 2026-04-30 18:15 | 37.49989 | -121.83764 | 7538 ft | 265 kts | 253° |
| 2026-04-30 18:16 | 37.49079 | -121.88230 | 6892 ft | 262 kts | 270° |
| 2026-04-30 18:16 | 37.49355 | -121.92712 | 6379 ft | 256 kts | 275° |
| 2026-04-30 18:17 | 37.49498 | -121.94968 | 6092 ft | 254 kts | 275° |
| 2026-04-30 18:17 | 37.49636 | -121.97188 | 5798 ft | 255 kts | 275° |
| 2026-04-30 18:17 | 37.49895 | -122.01608 | 5217 ft | 254 kts | 275° |
| 2026-04-30 18:18 | 37.50024 | -122.03828 | 4928 ft | 254 kts | 275° |
| 2026-04-30 18:18 | 37.50150 | -122.06037 | 4627 ft | 253 kts | 275° |
| 2026-04-30 18:18 | 37.50278 | -122.08235 | 4334 ft | 251 kts | 277° |
| 2026-04-30 18:18 | 37.50752 | -122.10329 | 4029 ft | 248 kts | 295° |
| 2026-04-30 18:19 | 37.51514 | -122.12262 | 3758 ft | 246 kts | 298° |
| 2026-04-30 18:19 | 37.52302 | -122.14147 | 3566 ft | 238 kts | 299° |
| 2026-04-30 18:19 | 37.53050 | -122.15921 | 3475 ft | 222 kts | 299° |
| 2026-04-30 18:19 | 37.53749 | -122.17582 | 3358 ft | 207 kts | 299° |
| 2026-04-30 18:20 | 37.54431 | -122.19156 | 2982 ft | 208 kts | 299° |
| 2026-04-30 18:20 | 37.55108 | -122.20730 | 2713 ft | 203 kts | 298° |
| 2026-04-30 18:20 | 37.55755 | -122.22275 | 2446 ft | 196 kts | 297° |
| 2026-04-30 18:20 | 37.56381 | -122.23780 | 2164 ft | 190 kts | 297° |
| 2026-04-30 18:21 | 37.56984 | -122.25229 | 1901 ft | 182 kts | 296° |
| 2026-04-30 18:21 | 37.57560 | -122.26613 | 1663 ft | 174 kts | 296° |
| 2026-04-30 18:21 | 37.58100 | -122.27908 | 1431 ft | 160 kts | 296° |
| 2026-04-30 18:21 | 37.58596 | -122.29106 | 1220 ft | 149 kts | 296° |
| 2026-04-30 18:22 | 37.59064 | -122.30226 | 1051 ft | 140 kts | 296° |
| 2026-04-30 18:22 | 37.59927 | -122.32289 | 670 ft | 130 kts | 296° |
| 2026-04-30 18:22 | 37.60348 | -122.33294 | 487 ft | 131 kts | 297° |
| 2026-04-30 18:23 | 37.60759 | -122.34292 | 305 ft | 128 kts | 294° |
| 2026-04-30 18:23 | 37.61173 | -122.35311 | 145 ft | 132 kts | 295° |
| 2026-04-30 18:23 | 37.61597 | -122.36297 | 34 ft | 120 kts | 295° |
| 2026-04-30 18:23 | 37.61929 | -122.37115 | 23 ft | 85 kts | 298° |
| 2026-04-30 18:24 | 37.62223 | -122.37843 | 22 ft | 29 kts | 281° |
| 2026-04-30 18:24 | 37.62225 | -122.38089 | 21 ft | 27 kts | 265° |
| 2026-04-30 18:24 | 37.62134 | -122.38232 | 23 ft | 20 kts | 205° |
| 2026-04-30 18:25 | 37.62023 | -122.38294 | 21 ft | 17 kts | 177° |
| 2026-04-30 18:25 | 37.61902 | -122.38056 | 21 ft | 16 kts | 124° |
| 2026-04-30 18:25 | 37.61822 | -122.37967 | 21 ft | 15 kts | 160° |
| 2026-04-30 18:26 | 37.61628 | -122.37990 | 21 ft | 14 kts | 207° |
| 2026-04-30 18:26 | 37.61565 | -122.38055 | 21 ft | 11 kts | 266° |
| 2026-04-30 18:26 | 37.61595 | -122.38127 | 21 ft | 6 kts | 310° |
| 2026-04-30 18:27 | 37.61648 | -122.38130 | 21 ft | 2 kts | 18° |
| 2026-04-30 18:27 | 37.61655 | -122.38129 | 21 ft | 0 kts | 7° |